createdAt,value
2022-08-08T03:18:16.462Z,11.27
2022-08-08T03:21:58.587Z,11.18
2022-08-08T03:25:21.737Z,11.09
2022-08-08T03:28:47.446Z,11.03
2022-08-08T03:32:14.362Z,10.98
2022-08-08T03:35:30.138Z,10.94
2022-08-08T03:38:56.568Z,10.92
2022-08-08T03:42:27.292Z,10.96
2022-08-08T03:46:06.416Z,10.92
2022-08-08T03:49:56.535Z,10.84
2022-08-08T03:52:58.460Z,10.81
2022-08-08T03:56:10.387Z,10.84
2022-08-08T03:59:57.411Z,10.82
2022-08-08T04:03:58.214Z,10.84
2022-08-08T04:07:00.957Z,10.83
2022-08-08T04:10:18.749Z,10.77
2022-08-08T04:13:28.566Z,10.73
2022-08-08T04:16:51.554Z,10.81
2022-08-08T04:20:05.042Z,10.87
2022-08-08T04:23:19.805Z,10.88
2022-08-08T04:26:35.471Z,10.87
2022-08-08T04:30:17.698Z,10.82
2022-08-08T04:33:32.126Z,10.79
2022-08-08T04:36:55.764Z,10.79
2022-08-08T04:40:10.680Z,10.82
2022-08-08T04:43:46.272Z,10.80
2022-08-08T04:47:05.437Z,10.74
2022-08-08T04:50:38.189Z,10.74
2022-08-08T04:54:39.182Z,10.74
2022-08-08T04:57:22.996Z,10.74
2022-08-08T07:34:08.770Z,19.62
2022-08-08T07:37:23.414Z,19.82
2022-08-08T07:40:36.964Z,20.03
2022-08-08T07:43:54.729Z,20.21
2022-08-08T07:47:04.989Z,20.41
2022-08-08T07:50:22.140Z,20.59
2022-08-08T07:54:01.061Z,20.77
2022-08-08T07:57:19.939Z,20.91
2022-08-08T08:00:40.293Z,21.17
2022-08-08T08:04:04.727Z,21.35
2022-08-08T08:07:19.094Z,21.55
2022-08-08T08:10:40.682Z,21.77
2022-08-08T08:14:08.524Z,21.94
2022-08-08T08:17:36.429Z,22.13
2022-08-08T08:20:57.117Z,22.34
2022-08-08T08:24:10.644Z,22.56
2022-08-08T08:27:22.003Z,22.88
2022-08-08T08:30:36.525Z,23.25
2022-08-08T08:33:47.289Z,23.48
2022-08-08T08:37:07.829Z,23.78
2022-08-08T08:40:26.599Z,24.19
2022-08-08T08:43:38.314Z,24.64
2022-08-08T08:46:58.537Z,25.29
2022-08-08T08:50:31.840Z,25.42
2022-08-08T08:53:54.958Z,25.61
2022-08-08T08:57:15.536Z,25.72
2022-08-08T09:00:44.446Z,26.24
2022-08-08T09:04:06.885Z,26.55
2022-08-08T09:07:38.845Z,26.82
2022-08-08T09:10:57.518Z,27.21
2022-08-08T09:14:10.047Z,27.52
2022-08-08T09:17:40.749Z,27.67
2022-08-08T09:22:01.475Z,27.54
2022-08-08T09:24:31.167Z,27.62
2022-08-08T09:27:57.986Z,27.72
2022-08-08T09:31:15.498Z,27.97
2022-08-08T09:34:42.128Z,28.36
2022-08-08T09:38:04.309Z,28.40
2022-08-08T09:42:15.059Z,28.61
2022-08-08T09:45:20.866Z,29.16
2022-08-08T09:48:46.599Z,29.19
2022-08-08T09:52:08.121Z,28.35
2022-08-08T09:55:51.321Z,28.26
2022-08-08T09:58:58.372Z,28.46
2022-08-08T10:02:19.853Z,28.97
2022-08-08T10:05:39.843Z,29.28
2022-08-08T10:08:51.674Z,29.19
2022-08-08T10:12:27.036Z,29.44
2022-08-08T10:15:42.112Z,29.55
2022-08-08T10:19:11.658Z,29.72
2022-08-08T10:22:33.712Z,30.13
2022-08-08T10:25:52.459Z,30.24
2022-08-08T10:29:11.504Z,30.10
2022-08-08T10:32:36.228Z,29.87
2022-08-08T10:36:08.127Z,29.84
2022-08-08T10:39:43.643Z,30.02
2022-08-08T10:43:04.228Z,30.16
2022-08-08T10:46:30.101Z,30.67
2022-08-08T10:50:01.686Z,31.31
2022-08-08T10:53:13.123Z,30.98
2022-08-08T10:56:32.555Z,30.95
2022-08-08T10:59:45.470Z,31.21
2022-08-08T11:03:06.398Z,31.31
2022-08-08T11:06:19.597Z,31.75
2022-08-08T11:09:32.118Z,31.90
2022-08-08T11:13:12.221Z,32.13
2022-08-08T11:16:34.342Z,32.16
2022-08-08T11:19:46.537Z,32.06
2022-08-08T11:23:05.681Z,32.16
2022-08-08T11:26:20.968Z,32.62
2022-08-08T11:29:58.128Z,32.68
2022-08-08T11:33:13.224Z,32.29
2022-08-08T11:36:27.888Z,32.57
2022-08-08T11:39:57.435Z,32.98
2022-08-08T11:43:11.533Z,32.74
2022-08-08T11:46:30.563Z,32.97
2022-08-08T11:49:44.673Z,33.61
2022-08-08T11:52:59.368Z,33.74
2022-08-08T11:56:22.365Z,33.88
2022-08-08T11:59:57.809Z,33.73
2022-08-08T12:03:21.447Z,33.84
2022-08-08T12:06:34.367Z,33.70
2022-08-08T12:09:56.933Z,33.53
2022-08-08T12:13:12.124Z,33.56
2022-08-08T12:16:28.211Z,33.41
2022-08-08T12:19:57.393Z,33.75
2022-08-08T12:23:25.026Z,33.81
2022-08-08T12:26:41.716Z,34.02
2022-08-08T12:29:57.402Z,34.11
2022-08-08T12:33:18.654Z,34.05
2022-08-08T12:36:46.413Z,34.06
2022-08-08T12:40:02.816Z,33.78
2022-08-08T12:43:16.692Z,34.01
2022-08-08T12:46:32.756Z,34.35
2022-08-08T12:49:54.481Z,34.69
2022-08-08T12:53:05.845Z,35.21
2022-08-08T12:56:24.190Z,35.50
2022-08-08T13:00:04.380Z,35.46
2022-08-08T13:03:25.844Z,34.94
2022-08-08T13:06:54.556Z,34.42
2022-08-08T13:10:10.644Z,33.57
2022-08-08T13:13:28.230Z,33.21
2022-08-08T13:16:49.086Z,33.32
2022-08-08T13:20:06.518Z,33.73
2022-08-08T13:23:30.730Z,34.25
2022-08-08T13:26:46.124Z,34.76
2022-08-08T13:30:00.583Z,35.21
2022-08-08T13:33:18.355Z,35.12
2022-08-08T13:36:32.127Z,35.39
2022-08-08T13:39:42.681Z,35.84
2022-08-08T13:43:03.973Z,36.21
2022-08-08T13:46:27.353Z,36.09
2022-08-08T13:50:35.746Z,35.85
2022-08-08T13:53:24.901Z,35.84
2022-08-08T13:56:44.755Z,35.63
2022-08-08T14:00:11.443Z,35.69
2022-08-08T14:03:53.848Z,35.47
2022-08-08T14:07:02.693Z,35.39
2022-08-08T14:10:17.612Z,35.56
2022-08-08T14:14:00.284Z,35.74
2022-08-08T14:17:22.527Z,35.87
2022-08-08T14:20:58.148Z,35.35
2022-08-08T14:24:09.785Z,34.81
2022-08-08T14:27:28.713Z,34.51
2022-08-08T14:30:38.834Z,34.74
2022-08-08T14:33:55.215Z,34.67
2022-08-08T14:37:09.783Z,34.70
2022-08-08T14:40:24.546Z,34.63
2022-08-08T14:44:10.418Z,34.73
2022-08-08T14:47:21.748Z,34.96
2022-08-08T14:50:38.070Z,34.57
2022-08-08T14:53:55.099Z,34.93
2022-08-08T14:57:06.166Z,35.43
2022-08-08T15:00:18.611Z,35.62
2022-08-08T15:03:38.593Z,35.69
2022-08-08T15:06:56.028Z,35.68
2022-08-08T15:10:06.401Z,35.57
2022-08-08T15:13:19.409Z,35.36
2022-08-08T15:16:34.546Z,35.17
2022-08-08T15:19:44.747Z,35.16
2022-08-08T15:22:59.403Z,34.98
2022-08-08T15:26:13.033Z,35.26
2022-08-08T15:29:24.505Z,35.38
2022-08-08T15:32:35.918Z,34.93
2022-08-08T15:35:48.707Z,34.75
2022-08-08T15:39:00.202Z,35.16
2022-08-08T15:42:31.604Z,35.15
2022-08-08T15:45:48.824Z,34.67
2022-08-08T15:48:58.776Z,34.61
2022-08-08T15:52:12.184Z,34.69
2022-08-08T15:55:23.635Z,34.91
2022-08-08T15:58:33.729Z,34.84
2022-08-08T16:02:00.234Z,34.90
2022-08-08T16:05:13.971Z,34.53
2022-08-08T16:08:24.378Z,34.57
2022-08-08T16:13:08.803Z,34.70
2022-08-08T16:15:08.271Z,34.88
2022-08-08T16:18:18.089Z,34.69
2022-08-08T16:21:35.494Z,34.27
2022-08-08T16:24:50.516Z,34.23
2022-08-08T16:28:05.349Z,34.00
2022-08-08T16:31:34.351Z,33.99
2022-08-08T16:34:47.233Z,34.11
2022-08-08T16:38:00.261Z,34.18
2022-08-08T16:41:10.621Z,34.28
2022-08-08T16:44:33.761Z,34.13
2022-08-08T16:47:44.207Z,34.04
2022-08-08T16:50:54.166Z,33.81
2022-08-08T16:55:04.914Z,33.66
2022-08-08T16:58:13.799Z,33.66
2022-08-08T17:01:11.154Z,33.46
2022-08-08T17:04:26.437Z,33.08
2022-08-08T17:07:37.875Z,32.99
2022-08-08T17:10:58.558Z,32.79
2022-08-08T17:14:27.301Z,32.65
2022-08-08T17:18:02.829Z,32.49
2022-08-08T17:21:14.139Z,32.47
2022-08-08T17:24:28.050Z,32.56
2022-08-08T17:27:46.022Z,32.42
2022-08-08T17:30:57.043Z,32.15
2022-08-08T17:34:35.946Z,31.87
2022-08-08T17:37:38.136Z,31.60
2022-08-08T17:40:48.901Z,31.34
2022-08-08T17:44:02.371Z,31.01
2022-08-08T17:47:23.709Z,30.74
2022-08-08T17:50:35.862Z,30.45
2022-08-08T17:53:45.780Z,30.04
2022-08-08T17:57:08.118Z,29.56
2022-08-08T18:00:30.205Z,29.13
2022-08-08T18:03:42.867Z,28.84
2022-08-08T18:08:01.003Z,28.53
2022-08-08T18:10:40.335Z,28.13
2022-08-08T18:13:51.448Z,27.86
2022-08-08T18:17:02.766Z,27.55
2022-08-08T18:20:36.659Z,27.29
2022-08-08T18:23:56.239Z,26.97
2022-08-08T18:27:17.672Z,26.75
2022-08-08T18:30:28.119Z,26.49
2022-08-08T18:34:11.345Z,26.25
2022-08-08T18:37:17.605Z,25.93
2022-08-08T18:40:41.847Z,25.58
2022-08-08T18:43:58.171Z,25.38
2022-08-08T18:47:11.473Z,25.19
2022-08-08T18:50:24.366Z,24.96
2022-08-08T18:54:00.965Z,24.67
2022-08-08T18:57:11.068Z,24.40
2022-08-08T19:00:26.561Z,24.15
2022-08-08T19:04:05.460Z,23.93
2022-08-08T19:07:10.212Z,23.75
2022-08-08T19:10:20.318Z,23.56
2022-08-08T19:13:52.393Z,23.38
2022-08-08T19:17:06.365Z,23.12
2022-08-08T19:20:21.007Z,22.98
2022-08-08T19:23:35.390Z,22.80
2022-08-08T19:26:50.917Z,22.56
2022-08-08T19:30:04.779Z,22.23
2022-08-08T19:33:52.366Z,22.05
2022-08-08T19:37:00.147Z,21.83
2022-08-08T19:40:22.077Z,21.66
2022-08-08T19:44:02.407Z,21.49
2022-08-08T19:47:15.990Z,21.27
2022-08-08T19:50:27.143Z,21.11
2022-08-08T19:53:53.399Z,21.00
2022-08-08T19:57:07.608Z,20.81
2022-08-08T20:00:29.992Z,20.70
2022-08-08T20:04:01.759Z,20.61
2022-08-08T20:08:26.873Z,20.41
2022-08-08T20:10:45.568Z,20.22
2022-08-08T20:14:12.714Z,20.17
2022-08-08T20:17:29.396Z,20.05
